Weather at Blue Lagoon Seaplane Base

Public forecast

Using degrees Celsius for public forecast. Weather courtesy of forecast.io.

Closest aviation weather report (METAR) to Blue Lagoon Seaplane Base

Closest report is Nadi International Airport, 49.0 nm (90.7 km) S. Retrieved 2022/08/12 02:00 UTC (60 minutes ago):

NFFN 120200Z 20013KT 9999 FEW028 SCT048 BKN120 26/17 Q1013 NOSIG

Closest aviation forecast (TAF) to Blue Lagoon Seaplane Base

Closest forecast is Nadi International Airport, 49.0 nm (90.7 km) S. Retrieved 2022-08-12 00:00 UTC (3 hours ago):

TAF NFFN 112303Z 1200/1224 14008KT 9999 FEW028 SCT048 BKN100